createdAt,value
2022-12-11T00:14:03.075Z,84
2022-12-11T00:29:03.077Z,84
2022-12-11T00:44:03.054Z,84
2022-12-11T00:59:03.079Z,84
2022-12-11T01:14:03.048Z,84
2022-12-11T01:29:03.041Z,84
2022-12-11T01:44:03.038Z,84
2022-12-11T01:59:03.036Z,84
2022-12-11T02:14:03.027Z,85
2022-12-11T02:29:03.043Z,85
2022-12-11T02:44:03.036Z,84
2022-12-11T02:59:03.046Z,84
2022-12-11T03:14:03.067Z,85
2022-12-11T03:29:03.021Z,85
2022-12-11T03:44:03.023Z,85
2022-12-11T03:59:03.056Z,84
2022-12-11T04:14:03.020Z,85
2022-12-11T04:29:03.044Z,85
2022-12-11T04:44:03.001Z,85
2022-12-11T04:59:03.042Z,85
2022-12-11T05:14:02.994Z,85
2022-12-11T05:29:03.019Z,85
2022-12-11T05:44:03.000Z,86
2022-12-11T05:59:03.031Z,85
2022-12-11T06:14:02.985Z,85
2022-12-11T06:29:06.324Z,85
2022-12-11T06:44:02.972Z,85
2022-12-11T06:59:07.087Z,86
2022-12-11T07:14:02.972Z,85
2022-12-11T07:29:02.996Z,85
2022-12-11T07:44:02.960Z,85
2022-12-11T07:59:03.000Z,85
2022-12-11T08:14:02.958Z,85
2022-12-11T08:29:03.008Z,85
2022-12-11T08:44:02.953Z,85
2022-12-11T08:59:02.991Z,85
2022-12-11T09:29:02.992Z,84
2022-12-11T09:44:02.956Z,84
2022-12-11T09:59:02.974Z,84
2022-12-11T10:14:02.936Z,84
2022-12-11T10:29:02.967Z,83
2022-12-11T10:44:02.927Z,83
2022-12-11T10:59:02.956Z,83
2022-12-11T11:14:02.956Z,83
2022-12-11T11:29:02.951Z,83
2022-12-11T11:44:02.941Z,82
2022-12-11T11:59:02.931Z,82
2022-12-11T12:14:03.442Z,80
2022-12-11T12:29:02.910Z,79
2022-12-11T12:44:02.940Z,78
2022-12-11T12:59:02.892Z,78
2022-12-11T13:14:02.853Z,78
2022-12-11T13:29:02.861Z,77
2022-12-11T13:59:02.846Z,77
2022-12-11T14:14:02.827Z,78
2022-12-11T14:29:02.837Z,78
2022-12-11T14:44:02.787Z,78
2022-12-11T14:59:02.837Z,78
2022-12-11T15:14:02.788Z,79
2022-12-11T15:29:02.821Z,79
2022-12-11T15:44:02.776Z,80
2022-12-11T15:59:02.778Z,80
2022-12-11T16:14:02.759Z,81
2022-12-11T16:29:02.759Z,81
2022-12-11T16:44:02.760Z,81
2022-12-11T16:59:02.754Z,81
2022-12-11T17:14:02.745Z,82
2022-12-11T17:29:02.751Z,83
2022-12-11T17:44:02.735Z,83
2022-12-11T17:59:02.770Z,84
2022-12-11T18:29:02.760Z,84
2022-12-11T18:44:06.632Z,84
2022-12-11T18:59:02.739Z,84
2022-12-11T19:14:02.703Z,84
2022-12-11T19:29:02.749Z,84
2022-12-11T19:44:02.700Z,85
2022-12-11T19:59:02.742Z,85
2022-12-11T20:14:02.692Z,85
2022-12-11T20:29:02.721Z,84
2022-12-11T20:44:02.679Z,84
2022-12-11T20:59:02.721Z,84
2022-12-11T21:14:02.691Z,84
2022-12-11T21:29:02.685Z,84
2022-12-11T21:45:21.216Z,84
2022-12-11T21:59:02.698Z,84
2022-12-11T22:14:02.656Z,84
2022-12-11T22:29:02.666Z,84
2022-12-11T22:44:02.652Z,84
2022-12-11T22:59:02.688Z,84
2022-12-11T23:14:02.642Z,85
2022-12-11T23:29:02.655Z,85
2022-12-11T23:44:02.654Z,85
2022-12-11T23:59:02.671Z,85
